Time;durP1;ratioP1;P1;durP2;ratioP2;P2;SDS_P1;SDS_P2;PMS_P1;PMS_P2;Temp;Humidity;BMP_temperature;BMP_pressure;BME280_temperature;BME280_humidity;BME280_pressure;Samples;Min_cycle;Max_cycle;Signal;HPM_P1;HPM_P2
2022/01/17 00:00:13;;;;;;;81.67;34.67;;;7.70;86.20;;;;;;4973201;28;20518;-89
2022/01/17 00:02:40;;;;;;;74.35;32.63;;;7.70;86.20;;;;;;4973974;28;20510;-89
2022/01/17 00:05:07;;;;;;;82.45;35.33;;;7.60;86.20;;;;;;4975252;28;20215;-87
2022/01/17 00:07:34;;;;;;;75.10;32.58;;;7.70;86.30;;;;;;4991464;28;20295;-88
2022/01/17 00:10:00;;;;;;;80.95;33.47;;;7.60;86.30;;;;;;4979411;28;20186;-88
2022/01/17 00:12:27;;;;;;;73.65;32.13;;;7.40;86.50;;;;;;4993044;28;20190;-88
2022/01/17 00:14:56;;;;;;;81.03;34.13;;;7.40;86.80;;;;;;4993909;28;20242;-88
2022/01/17 00:19:52;;;;;;;74.60;32.77;;;7.50;87.00;;;;;;4995019;28;20207;-88
2022/01/17 00:22:20;;;;;;;72.15;33.65;;;7.50;87.00;;;;;;4993995;28;20418;-87
2022/01/17 00:24:47;;;;;;;76.53;34.45;;;7.40;87.10;;;;;;4992855;28;20179;-88
2022/01/17 00:27:16;;;;;;;95.45;36.45;;;7.30;87.20;;;;;;4995938;28;20191;-87
2022/01/17 00:29:42;;;;;;;72.93;32.42;;;7.40;87.30;;;;;;5008329;28;20262;-88
2022/01/17 00:32:08;;;;;;;74.63;35.72;;;7.30;87.50;;;;;;5004537;28;20271;-87
2022/01/17 00:34:34;;;;;;;101.15;37.75;;;7.40;87.60;;;;;;4999337;28;20217;-88
2022/01/17 00:37:00;;;;;;;81.17;34.00;;;7.30;87.80;;;;;;5006498;28;20278;-86
2022/01/17 00:39:26;;;;;;;92.47;36.03;;;7.40;87.80;;;;;;4993687;28;20935;-87
2022/01/17 00:41:52;;;;;;;86.73;36.20;;;7.50;87.90;;;;;;4995190;28;20202;-87
2022/01/17 00:44:23;;;;;;;77.20;35.10;;;7.50;87.80;;;;;;5011832;28;20422;-89
2022/01/17 00:46:51;;;;;;;78.28;36.40;;;7.50;87.80;;;;;;5005015;28;20667;-87
2022/01/17 00:49:17;;;;;;;87.43;37.22;;;7.50;87.90;;;;;;4993573;28;20183;-87
2022/01/17 00:51:42;;;;;;;72.40;32.83;;;7.50;87.80;;;;;;4993498;28;20230;-87
2022/01/17 00:54:09;;;;;;;84.37;35.07;;;7.50;87.80;;;;;;4992944;28;20207;-87
2022/01/17 00:56:34;;;;;;;94.95;36.15;;;7.50;87.80;;;;;;4994147;28;20441;-88
2022/01/17 00:59:00;;;;;;;79.80;35.10;;;7.60;88.50;;;;;;4994873;28;20183;-88
2022/01/17 01:01:26;;;;;;;80.23;31.63;;;7.60;87.70;;;;;;4996033;28;20180;-88
2022/01/17 01:03:52;;;;;;;74.95;34.05;;;7.70;87.70;;;;;;4994815;28;20175;-88
2022/01/17 01:06:18;;;;;;;70.00;35.80;;;7.80;87.40;;;;;;4995560;28;20210;-88
2022/01/17 01:08:44;;;;;;;71.85;34.05;;;7.70;87.40;;;;;;4994181;28;20209;-88
2022/01/17 01:11:10;;;;;;;77.40;33.33;;;7.80;87.40;;;;;;4994393;28;20647;-88
2022/01/17 01:13:37;;;;;;;81.43;34.75;;;7.80;87.10;;;;;;4992942;28;20285;-87
2022/01/17 01:28:53;;;;;;;76.78;33.45;;;7.80;86.90;;;;;;4994340;28;20170;-88
2022/01/17 01:31:29;;;;;;;59.17;32.30;;;7.80;87.00;;;;;;4993754;28;20179;-88
2022/01/17 01:34:02;;;;;;;76.40;32.88;;;7.80;87.00;;;;;;4991868;28;20202;-87
2022/01/17 01:36:29;;;;;;;76.40;34.92;;;7.90;87.10;;;;;;4999189;28;20714;-87
2022/01/17 01:38:55;;;;;;;67.72;32.50;;;7.90;86.90;;;;;;4999286;28;20224;-88
2022/01/17 01:41:21;;;;;;;83.78;31.95;;;7.90;86.90;;;;;;4991885;28;20180;-88
2022/01/17 01:43:47;;;;;;;75.80;32.85;;;7.80;86.70;;;;;;4980625;28;20658;-88
2022/01/17 01:46:17;;;;;;;75.72;33.55;;;7.90;86.90;;;;;;4979682;28;20207;-88
2022/01/17 01:48:43;;;;;;;68.32;31.90;;;7.90;86.90;;;;;;4981127;28;20159;-87
2022/01/17 01:51:09;;;;;;;73.13;32.28;;;8.00;86.80;;;;;;4980032;28;20190;-88
2022/01/17 01:53:36;;;;;;;69.93;31.53;;;8.00;86.60;;;;;;4980207;28;20195;-88
2022/01/17 01:56:02;;;;;;;80.50;33.42;;;8.10;86.40;;;;;;4979158;28;20450;-88
2022/01/17 01:58:28;;;;;;;69.38;32.90;;;7.90;86.30;;;;;;4979114;28;20180;-88
2022/01/17 02:00:55;;;;;;;77.10;35.83;;;7.90;86.40;;;;;;4979151;28;20184;-88
2022/01/17 02:03:21;;;;;;;70.00;33.38;;;7.90;86.40;;;;;;4978823;28;20303;-88
2022/01/17 02:05:47;;;;;;;78.72;33.80;;;7.90;86.50;;;;;;4979215;28;20680;-87
2022/01/17 02:08:13;;;;;;;71.23;33.87;;;7.80;86.40;;;;;;4979609;28;20184;-88
2022/01/17 02:10:39;;;;;;;78.00;35.42;;;7.70;86.50;;;;;;4979508;28;20222;-88
2022/01/17 02:13:05;;;;;;;84.38;34.60;;;7.70;86.70;;;;;;4979037;28;20211;-88
2022/01/17 02:15:50;;;;;;;85.40;36.17;;;7.70;86.80;;;;;;4980131;28;20226;-87
2022/01/17 02:18:29;;;;;;;80.43;36.13;;;7.60;86.80;;;;;;4980561;28;20418;-87
2022/01/17 02:23:40;;;;;;;78.50;32.50;;;7.70;87.20;;;;;;5012867;28;20251;-88
2022/01/17 02:26:06;;;;;;;77.43;33.47;;;7.70;86.90;;;;;;5017324;28;20222;-87
2022/01/17 02:28:33;;;;;;;70.82;33.72;;;7.70;87.10;;;;;;5007993;28;20183;-88
2022/01/17 02:31:00;;;;;;;80.55;34.38;;;7.60;87.10;;;;;;5003311;28;20186;-88
2022/01/17 02:33:26;;;;;;;80.43;33.22;;;7.60;87.10;;;;;;5003758;28;20218;-88
2022/01/17 02:35:52;;;;;;;72.47;33.67;;;7.60;87.20;;;;;;5006530;28;20227;-88
2022/01/17 02:38:18;;;;;;;77.57;33.47;;;7.70;87.40;;;;;;5021902;28;20167;-88
2022/01/17 02:40:43;;;;;;;80.37;32.30;;;7.60;87.30;;;;;;5012414;28;20552;-88
2022/01/17 02:43:09;;;;;;;68.37;34.03;;;7.70;87.40;;;;;;4999900;28;20193;-88
2022/01/17 02:46:24;;;;;;;87.83;34.20;;;7.60;87.30;;;;;;4998476;28;20203;-88
2022/01/17 02:48:33;;;;;;;70.82;32.08;;;7.60;87.40;;;;;;4997209;28;20167;-88
2022/01/17 02:51:00;;;;;;;70.88;34.13;;;7.70;87.60;;;;;;4996322;28;20191;-88
2022/01/17 02:53:26;;;;;;;78.70;34.17;;;7.60;87.40;;;;;;4995335;28;20195;-88
2022/01/17 02:55:54;;;;;;;76.22;33.65;;;7.60;87.50;;;;;;4994738;28;20221;-88
2022/01/17 02:58:23;;;;;;;68.32;33.60;;;7.50;87.80;;;;;;4995855;28;20266;-88
2022/01/17 03:00:52;;;;;;;92.35;35.03;;;7.60;88.50;;;;;;4997044;28;20182;-88
2022/01/17 03:06:40;;;;;;;85.78;32.45;;;7.70;87.90;;;;;;4977987;28;20207;-87
2022/01/17 03:09:06;;;;;;;72.27;33.20;;;7.70;87.80;;;;;;4992337;28;20556;-88
2022/01/17 03:11:31;;;;;;;81.53;32.37;;;7.70;87.80;;;;;;4991598;28;20680;-88
2022/01/17 03:13:58;;;;;;;67.73;33.60;;;7.70;87.70;;;;;;4991369;28;20257;-88
2022/01/17 03:16:30;;;;;;;67.82;32.90;;;7.70;87.70;;;;;;4992598;28;20230;-88
2022/01/17 03:18:56;;;;;;;62.13;31.48;;;7.70;87.70;;;;;;4992044;28;20176;-88
2022/01/17 03:21:24;;;;;;;66.40;32.33;;;7.80;87.50;;;;;;4997725;28;20642;-88
2022/01/17 03:23:51;;;;;;;63.35;32.42;;;7.80;87.40;;;;;;4998213;28;20183;-88
2022/01/17 03:26:17;;;;;;;72.85;30.85;;;7.80;87.40;;;;;;5005032;28;20203;-89
2022/01/17 03:28:43;;;;;;;72.72;32.55;;;7.80;87.30;;;;;;4995256;28;20211;-88
2022/01/17 03:31:10;;;;;;;79.40;31.47;;;7.80;87.30;;;;;;4994699;28;20222;-88
2022/01/17 03:33:36;;;;;;;67.88;32.67;;;7.80;87.30;;;;;;4994581;28;20462;-88
2022/01/17 09:39:43;;;;;;;27.45;10.05;;;8.30;83.70;;;;;;5031940;28;20213;-89
2022/01/17 09:42:09;;;;;;;23.58;8.95;;;8.20;83.10;;;;;;5016082;28;20178;-89
2022/01/17 09:44:36;;;;;;;25.90;10.27;;;8.20;82.80;;;;;;5015987;28;20276;-89
2022/01/17 09:47:10;;;;;;;22.48;9.60;;;8.10;83.00;;;;;;5016104;28;20236;-88
2022/01/17 09:49:42;;;;;;;33.92;9.80;;;8.20;83.10;;;;;;5015878;28;20178;-89
2022/01/17 09:52:25;;;;;;;19.88;8.60;;;8.30;82.70;;;;;;5016182;28;20178;-89
2022/01/17 09:54:53;;;;;;;19.33;7.53;;;8.30;82.40;;;;;;5015741;28;20201;-89
2022/01/17 09:57:21;;;;;;;23.85;8.88;;;8.40;82.20;;;;;;5019875;28;20194;-89
2022/01/17 09:59:47;;;;;;;22.33;9.10;;;8.40;82.10;;;;;;5018530;28;20277;-89
2022/01/17 10:02:13;;;;;;;21.30;8.73;;;8.40;82.10;;;;;;5020854;28;20186;-89
2022/01/17 10:04:40;;;;;;;27.38;7.97;;;8.50;82.00;;;;;;5025443;28;20200;-89
2022/01/17 10:07:06;;;;;;;32.72;8.45;;;8.50;81.80;;;;;;5017362;28;20202;-89
2022/01/17 10:09:34;;;;;;;38.60;8.82;;;8.70;81.50;;;;;;5018689;28;20182;-89
2022/01/17 10:12:16;;;;;;;21.65;7.63;;;8.70;81.30;;;;;;5018071;28;20272;-89
2022/01/17 10:14:59;;;;;;;31.27;9.13;;;8.80;81.10;;;;;;5019532;28;20216;-89
2022/01/17 10:17:43;;;;;;;19.02;7.40;;;9.00;80.90;;;;;;5019852;28;20688;-90
2022/01/17 10:20:11;;;;;;;30.50;7.50;;;8.90;80.40;;;;;;5019386;28;20181;-89
2022/01/17 10:22:48;;;;;;;18.80;7.75;;;8.80;80.10;;;;;;4999616;28;20182;-89
2022/01/17 10:36:56;;;;;;;26.90;9.00;;;9.10;79.40;;;;;;5033825;28;20220;-90
2022/01/17 10:39:22;;;;;;;17.48;8.23;;;8.90;79.40;;;;;;5004456;28;20697;-89
2022/01/17 10:41:48;;;;;;;17.93;7.07;;;8.60;79.80;;;;;;5001382;28;20241;-90
2022/01/17 10:44:44;;;;;;;16.92;7.18;;;8.60;80.30;;;;;;5001341;28;21138;-89
2022/01/17 10:47:28;;;;;;;28.33;9.02;;;8.80;80.40;;;;;;4988667;28;20210;-89
2022/01/17 10:50:04;;;;;;;21.60;9.25;;;8.90;80.40;;;;;;5005543;28;20182;-89
2022/01/17 10:52:36;;;;;;;18.92;7.20;;;9.10;80.30;;;;;;4999331;28;20178;-90
2022/01/17 10:55:08;;;;;;;19.95;7.72;;;9.10;80.00;;;;;;5000113;28;20281;-89
2022/01/17 10:57:40;;;;;;;17.08;7.45;;;9.00;79.50;;;;;;5000793;28;20193;-89
2022/01/17 11:00:18;;;;;;;23.08;6.75;;;8.90;79.50;;;;;;5013870;28;20175;-89
2022/01/17 11:02:53;;;;;;;23.60;7.07;;;9.00;79.50;;;;;;5011294;28;20233;-89
2022/01/17 11:05:22;;;;;;;25.70;7.40;;;8.80;79.00;;;;;;5000521;28;20236;-89
2022/01/17 11:07:50;;;;;;;17.27;6.65;;;8.80;79.20;;;;;;4998891;28;20238;-90
2022/01/17 11:10:23;;;;;;;19.15;6.65;;;8.90;79.50;;;;;;4999733;28;20174;-89
2022/01/17 11:12:51;;;;;;;22.00;6.90;;;8.80;79.20;;;;;;5000174;28;20178;-89
2022/01/17 11:15:18;;;;;;;22.55;7.18;;;8.80;79.10;;;;;;5011992;28;20206;-89
2022/01/17 11:17:50;;;;;;;11.07;6.10;;;8.80;78.90;;;;;;5004505;28;20270;-89
2022/01/17 11:20:18;;;;;;;20.30;6.90;;;8.90;78.90;;;;;;5015036;28;20201;-89
2022/01/17 11:22:46;;;;;;;16.40;6.55;;;9.10;78.70;;;;;;4998155;28;20179;-89
2022/01/17 11:25:21;;;;;;;14.15;6.53;;;9.20;78.40;;;;;;4995491;28;20188;-89
2022/01/17 11:27:52;;;;;;;23.25;7.05;;;9.20;78.10;;;;;;5006317;28;20222;-89
2022/01/17 11:30:21;;;;;;;13.98;7.07;;;9.20;77.90;;;;;;4999700;28;20189;-89
2022/01/17 11:32:49;;;;;;;22.52;5.00;;;9.20;77.60;;;;;;4998682;28;20658;-89
2022/01/17 11:35:16;;;;;;;22.83;5.72;;;9.30;77.40;;;;;;5013323;28;20206;-90
2022/01/17 11:37:55;;;;;;;22.00;5.70;;;9.50;77.30;;;;;;5016486;28;20212;-89
2022/01/17 11:40:27;;;;;;;34.72;6.50;;;9.60;77.00;;;;;;4998739;28;20270;-90
2022/01/17 11:42:54;;;;;;;20.08;5.88;;;9.70;76.60;;;;;;4999677;28;20210;-90
2022/01/17 11:45:22;;;;;;;19.88;5.47;;;9.70;76.10;;;;;;5017141;28;20716;-90
2022/01/17 11:47:53;;;;;;;11.77;5.75;;;9.40;76.20;;;;;;5000551;28;20233;-90
2022/01/17 11:50:32;;;;;;;19.45;5.75;;;9.60;76.40;;;;;;5001727;28;20642;-90
2022/01/17 11:53:11;;;;;;;11.65;5.35;;;9.60;76.10;;;;;;4998041;28;20213;-90
2022/01/17 11:55:40;;;;;;;21.23;5.63;;;9.70;75.90;;;;;;4998596;28;20189;-90
2022/01/17 11:58:25;;;;;;;11.30;4.65;;;9.60;75.70;;;;;;4998926;28;20202;-90
2022/01/17 12:00:57;;;;;;;15.00;5.32;;;9.60;75.70;;;;;;4998600;28;20178;-90
2022/01/17 12:03:31;;;;;;;16.45;4.95;;;9.60;75.40;;;;;;5008165;28;20182;-90
2022/01/17 12:06:16;;;;;;;12.00;4.88;;;9.50;75.50;;;;;;5018376;28;20276;-90
2022/01/17 12:08:42;;;;;;;18.67;5.00;;;9.60;75.50;;;;;;5018855;28;20174;-90
2022/01/17 12:11:28;;;;;;;18.57;5.17;;;9.50;75.60;;;;;;5019456;28;20660;-90
2022/01/17 12:13:59;;;;;;;19.85;5.68;;;9.10;75.90;;;;;;5022274;28;20459;-90
2022/01/17 12:16:27;;;;;;;16.63;5.18;;;9.20;76.20;;;;;;5022867;28;20198;-90
2022/01/17 12:18:54;;;;;;;8.57;4.78;;;9.20;76.40;;;;;;5018467;28;20182;-90
2022/01/17 12:21:20;;;;;;;12.50;4.78;;;9.00;76.70;;;;;;4998240;28;20654;-89
2022/01/17 12:23:46;;;;;;;12.73;4.57;;;8.90;77.30;;;;;;5001770;28;20207;-90
2022/01/17 12:26:32;;;;;;;17.13;5.50;;;8.90;77.50;;;;;;5009138;28;20175;-90
2022/01/17 12:28:59;;;;;;;14.77;5.30;;;9.00;77.70;;;;;;5008944;28;20186;-91
2022/01/17 12:31:45;;;;;;;29.27;5.55;;;9.00;77.90;;;;;;5001339;28;20229;-90
2022/01/17 12:34:24;;;;;;;30.10;5.47;;;9.20;78.10;;;;;;4998584;28;20272;-89
2022/01/17 12:36:52;;;;;;;10.73;4.63;;;9.40;77.80;;;;;;4998680;28;20225;-89
2022/01/17 12:39:28;;;;;;;15.52;4.53;;;9.60;77.50;;;;;;4999706;28;20252;-89
2022/01/17 12:42:00;;;;;;;23.65;6.72;;;9.60;77.00;;;;;;5017573;28;20586;-89
2022/01/17 12:44:28;;;;;;;21.20;5.05;;;9.70;77.00;;;;;;4999657;28;20178;-89
2022/01/17 12:46:56;;;;;;;15.80;4.70;;;9.80;76.60;;;;;;4998937;28;20701;-89
2022/01/17 12:49:22;;;;;;;20.17;6.18;;;9.70;76.10;;;;;;5001939;28;20712;-90
2022/01/17 12:51:52;;;;;;;17.40;5.25;;;9.60;76.10;;;;;;4990882;28;20194;-92
2022/01/17 12:54:24;;;;;;;15.60;6.65;;;9.70;76.10;;;;;;5012166;28;20210;-90
2022/01/17 12:56:53;;;;;;;13.93;4.88;;;9.70;76.00;;;;;;5013286;28;20241;-89
2022/01/17 12:59:19;;;;;;;13.77;4.68;;;9.50;76.10;;;;;;5004365;28;20213;-90
2022/01/17 13:01:52;;;;;;;25.33;5.53;;;9.80;76.30;;;;;;5009079;28;20186;-90
2022/01/17 13:04:20;;;;;;;13.77;5.95;;;9.80;76.10;;;;;;5000774;28;20186;-89
2022/01/17 13:06:48;;;;;;;12.10;4.78;;;9.80;76.10;;;;;;5008513;28;20194;-91
2022/01/17 13:09:20;;;;;;;18.58;4.43;;;9.80;75.90;;;;;;5016361;28;20166;-89
2022/01/17 13:11:48;;;;;;;11.05;4.40;;;9.70;75.90;;;;;;4998223;28;20198;-90
2022/01/17 13:14:16;;;;;;;18.30;4.35;;;9.70;76.10;;;;;;4997030;28;20305;-90
2022/01/17 13:16:42;;;;;;;14.55;4.43;;;9.70;76.30;;;;;;4997448;28;20244;-89
2022/01/17 13:19:13;;;;;;;12.52;3.70;;;9.80;76.40;;;;;;4997239;28;20183;-90
2022/01/17 13:21:42;;;;;;;17.40;4.35;;;10.00;76.40;;;;;;4997094;28;20205;-89
2022/01/17 13:24:19;;;;;;;10.57;3.65;;;10.00;76.00;;;;;;4999177;28;20209;-90
2022/01/17 13:26:56;;;;;;;15.43;4.88;;;10.00;75.90;;;;;;4997581;28;20213;-89
2022/01/17 13:29:23;;;;;;;18.00;4.97;;;10.00;76.10;;;;;;4996887;28;20188;-91
2022/01/17 13:31:48;;;;;;;14.45;4.53;;;9.80;76.10;;;;;;4996399;28;20556;-89
2022/01/17 13:34:24;;;;;;;17.40;4.67;;;9.70;76.40;;;;;;4996474;28;20213;-89
2022/01/17 13:36:53;;;;;;;21.35;4.10;;;9.70;76.80;;;;;;4997220;28;20492;-89
2022/01/17 13:39:22;;;;;;;23.98;5.50;;;9.80;77.50;;;;;;4996958;28;20301;-89
2022/01/17 13:41:53;;;;;;;13.70;3.78;;;9.60;76.70;;;;;;5001015;28;20605;-89
2022/01/17 13:44:28;;;;;;;16.75;4.70;;;9.50;77.10;;;;;;5001935;28;20182;-90
2022/01/17 13:46:57;;;;;;;12.98;4.55;;;9.70;77.30;;;;;;5006908;28;20287;-90
2022/01/17 13:49:24;;;;;;;10.85;3.85;;;9.70;77.30;;;;;;5019347;28;20183;-89
2022/01/17 13:51:50;;;;;;;24.67;4.03;;;9.70;77.30;;;;;;5001099;28;20188;-89
2022/01/17 13:54:26;;;;;;;24.67;6.07;;;9.60;77.50;;;;;;5000697;28;20296;-89
2022/01/17 13:56:52;;;;;;;10.57;4.30;;;9.70;77.70;;;;;;5003339;28;20269;-89
2022/01/17 13:59:19;;;;;;;19.60;3.67;;;9.70;77.70;;;;;;4999450;28;20246;-90
2022/01/17 14:01:45;;;;;;;15.52;4.18;;;9.90;77.70;;;;;;4997874;28;20189;-89
2022/01/17 14:04:29;;;;;;;19.25;4.90;;;10.00;77.20;;;;;;4996817;28;20183;-89
2022/01/17 14:06:58;;;;;;;16.27;3.58;;;9.90;77.00;;;;;;4999599;28;20214;-90
2022/01/17 14:09:32;;;;;;;34.15;4.18;;;9.70;77.30;;;;;;5017065;28;20553;-90
2022/01/17 14:11:58;;;;;;;14.45;4.22;;;9.90;77.50;;;;;;5017836;28;20182;-89
2022/01/17 14:14:28;;;;;;;12.93;4.05;;;9.90;77.10;;;;;;5017076;28;20216;-90
2022/01/17 14:16:55;;;;;;;19.85;4.95;;;10.00;77.10;;;;;;5023903;28;20201;-89
2022/01/17 14:19:22;;;;;;;7.72;3.13;;;9.90;76.90;;;;;;5030223;28;20174;-89
2022/01/17 14:22:08;;;;;;;15.68;3.90;;;9.90;77.10;;;;;;4996266;28;20178;-90
2022/01/17 14:24:44;;;;;;;16.70;4.07;;;9.80;77.30;;;;;;4978032;28;20194;-90
2022/01/17 14:27:24;;;;;;;17.58;3.83;;;9.70;77.60;;;;;;4989845;28;20206;-90
2022/01/17 14:29:55;;;;;;;16.13;3.97;;;9.60;77.70;;;;;;4998466;28;20205;-90
2022/01/17 14:32:21;;;;;;;10.98;4.13;;;9.70;78.20;;;;;;4991427;28;20181;-89
2022/01/17 14:34:53;;;;;;;21.40;3.30;;;9.60;78.30;;;;;;5014062;28;20206;-88
2022/01/17 14:37:23;;;;;;;28.23;4.72;;;9.60;79.10;;;;;;4996604;28;20576;-88
2022/01/17 14:40:03;;;;;;;18.08;4.68;;;9.60;78.40;;;;;;4996501;28;20171;-88
2022/01/17 14:42:38;;;;;;;19.13;4.60;;;9.60;78.70;;;;;;5000271;28;20181;-91
2022/01/17 14:45:13;;;;;;;9.13;3.55;;;9.80;78.60;;;;;;5002518;28;20228;-89
2022/01/17 14:47:41;;;;;;;13.82;4.47;;;9.90;81.20;;;;;;5016924;28;20254;-90
2022/01/17 14:50:27;;;;;;;10.65;3.45;;;10.00;82.60;;;;;;5008082;28;20551;-89
2022/01/17 14:52:54;;;;;;;12.00;4.30;;;9.90;82.00;;;;;;5000802;28;20174;-89
2022/01/17 15:01:14;;;;;;;16.70;2.95;;;10.00;80.20;;;;;;5037343;28;20174;-90
2022/01/17 15:03:41;;;;;;;12.48;3.22;;;10.00;81.20;;;;;;5002832;28;20170;-89
2022/01/17 15:06:09;;;;;;;16.13;3.80;;;10.00;80.40;;;;;;5000634;28;20182;-90
2022/01/17 15:08:35;;;;;;;16.27;3.67;;;9.90;79.70;;;;;;4999805;28;20585;-89
2022/01/17 15:11:00;;;;;;;13.93;4.30;;;9.90;79.70;;;;;;5000374;28;20186;-89
2022/01/17 15:13:26;;;;;;;15.57;3.80;;;9.90;79.70;;;;;;5000124;28;20206;-89
2022/01/17 15:15:52;;;;;;;6.30;3.13;;;9.90;79.20;;;;;;5000999;28;20183;-90
2022/01/17 15:18:18;;;;;;;9.63;3.70;;;9.80;79.20;;;;;;5003112;28;20221;-89
2022/01/17 15:20:48;;;;;;;5.03;2.87;;;9.60;79.20;;;;;;5004507;28;20254;-90
2022/01/17 15:23:17;;;;;;;11.65;3.58;;;9.70;80.80;;;;;;5001982;28;20265;-89
2022/01/17 15:25:43;;;;;;;14.50;3.95;;;9.50;79.70;;;;;;5001161;28;20677;-89
2022/01/17 15:28:09;;;;;;;19.97;4.20;;;9.50;80.30;;;;;;5001162;28;20203;-90
2022/01/17 15:30:36;;;;;;;13.07;3.80;;;9.60;80.10;;;;;;4998779;28;20182;-89
2022/01/17 15:33:05;;;;;;;15.38;4.32;;;9.50;79.90;;;;;;4999076;28;20186;-90
2022/01/17 15:35:31;;;;;;;11.10;3.80;;;9.40;79.80;;;;;;4999119;28;20261;-89
2022/01/17 15:37:58;;;;;;;10.02;3.28;;;9.40;80.10;;;;;;4998947;28;20214;-90
2022/01/17 15:40:25;;;;;;;14.18;3.83;;;9.40;80.90;;;;;;5007592;28;20171;-90
2022/01/17 15:42:51;;;;;;;11.15;4.32;;;9.40;81.00;;;;;;5014789;28;20178;-89
2022/01/17 15:45:46;;;;;;;19.50;4.88;;;9.40;80.70;;;;;;5003754;28;20186;-89
2022/01/17 15:48:12;;;;;;;19.83;3.75;;;9.30;80.50;;;;;;4998441;28;20210;-89
2022/01/17 15:50:38;;;;;;;28.17;4.70;;;9.30;80.50;;;;;;4998438;28;20182;-89
2022/01/17 15:53:04;;;;;;;11.45;3.53;;;9.20;80.50;;;;;;4998481;28;20174;-89
2022/01/17 15:55:30;;;;;;;16.67;3.80;;;9.20;80.90;;;;;;4998478;28;20269;-89
2022/01/17 15:57:57;;;;;;;14.80;3.93;;;9.10;81.10;;;;;;4998859;28;20194;-89
2022/01/17 16:00:22;;;;;;;21.73;3.70;;;9.00;81.40;;;;;;4998818;28;20167;-90
2022/01/17 16:02:48;;;;;;;21.33;4.70;;;9.00;81.60;;;;;;5015993;28;20189;-89
2022/01/17 16:05:14;;;;;;;23.90;5.30;;;9.00;82.20;;;;;;4998829;28;20241;-89
2022/01/17 16:07:40;;;;;;;15.88;4.40;;;8.90;82.50;;;;;;4998177;28;20202;-90
2022/01/17 16:10:07;;;;;;;15.18;3.50;;;9.00;82.70;;;;;;4999384;28;20266;-90
2022/01/17 16:12:36;;;;;;;25.75;4.97;;;9.00;82.40;;;;;;4998557;28;20179;-90
2022/01/17 16:15:07;;;;;;;13.65;3.80;;;8.90;82.20;;;;;;4999063;28;20277;-90
2022/01/17 16:17:32;;;;;;;20.10;5.53;;;8.90;82.80;;;;;;5003660;28;20245;-89
2022/01/17 16:19:58;;;;;;;12.13;3.57;;;8.90;82.90;;;;;;5012947;28;20190;-89
2022/01/17 16:22:24;;;;;;;20.80;3.50;;;8.80;82.90;;;;;;5009449;28;20535;-89
2022/01/17 16:24:51;;;;;;;21.20;5.07;;;8.90;83.10;;;;;;4998043;28;20221;-88
2022/01/17 16:27:16;;;;;;;16.35;5.38;;;8.80;83.00;;;;;;5000456;28;20238;-88
2022/01/17 16:29:50;;;;;;;17.40;3.40;;;8.90;83.20;;;;;;5010012;28;20180;-88
2022/01/17 16:32:16;;;;;;;21.88;5.50;;;8.80;83.10;;;;;;5007613;28;20175;-88
2022/01/17 16:34:42;;;;;;;17.10;4.00;;;8.80;83.20;;;;;;4999112;28;20278;-88
2022/01/17 16:37:08;;;;;;;14.63;3.53;;;8.80;83.40;;;;;;4996317;28;20862;-88
2022/01/17 16:39:34;;;;;;;16.73;3.60;;;8.70;83.20;;;;;;5014562;28;20956;-88
2022/01/17 16:42:00;;;;;;;13.83;4.60;;;8.70;83.20;;;;;;5003624;28;20198;-88
2022/01/17 16:44:27;;;;;;;14.17;3.93;;;8.70;83.30;;;;;;4999696;28;20437;-89
2022/01/17 16:46:53;;;;;;;21.08;4.55;;;8.50;83.40;;;;;;5003529;28;20210;-89
2022/01/17 16:49:19;;;;;;;13.10;4.20;;;8.50;83.90;;;;;;5008134;28;20215;-89
2022/01/17 16:51:44;;;;;;;18.13;5.23;;;8.50;84.10;;;;;;5009367;28;20429;-89
2022/01/17 16:54:10;;;;;;;32.57;4.10;;;8.50;84.20;;;;;;5016136;28;20630;-89
2022/01/17 16:56:36;;;;;;;21.83;5.07;;;8.50;84.30;;;;;;5018720;28;20545;-89
2022/01/17 16:59:04;;;;;;;27.77;4.30;;;8.50;84.20;;;;;;5014099;28;20182;-89
2022/01/17 17:01:30;;;;;;;24.52;4.55;;;8.50;84.40;;;;;;5013339;28;20262;-89
2022/01/17 17:03:56;;;;;;;8.87;4.10;;;8.60;84.40;;;;;;5013291;28;20214;-89
2022/01/17 17:06:22;;;;;;;9.77;4.20;;;8.70;84.30;;;;;;5012929;28;20524;-89
2022/01/17 17:08:47;;;;;;;23.17;4.77;;;8.60;84.00;;;;;;5013299;28;20296;-88
2022/01/17 17:11:13;;;;;;;17.67;5.17;;;8.60;83.70;;;;;;5013513;28;20178;-89
2022/01/17 17:13:41;;;;;;;16.53;5.10;;;8.50;83.90;;;;;;5012669;28;20202;-88
2022/01/17 17:16:06;;;;;;;16.95;4.80;;;8.50;84.00;;;;;;5002729;28;20193;-88
2022/01/17 17:18:36;;;;;;;19.13;5.23;;;8.50;84.20;;;;;;4996967;28;20178;-90
2022/01/17 17:21:02;;;;;;;22.98;5.03;;;8.40;84.10;;;;;;4997001;28;20421;-90
2022/01/17 17:23:28;;;;;;;21.30;4.80;;;8.30;84.30;;;;;;4996385;28;20714;-90
2022/01/17 17:25:54;;;;;;;17.95;6.10;;;8.50;84.60;;;;;;5014648;28;20256;-90
2022/01/17 17:28:20;;;;;;;21.35;5.03;;;8.60;84.20;;;;;;5004422;28;20194;-89
2022/01/17 17:30:47;;;;;;;32.00;10.83;;;8.40;84.00;;;;;;5000706;28;20174;-90
2022/01/17 17:33:13;;;;;;;26.25;8.30;;;8.30;84.10;;;;;;5001044;28;20413;-90
2022/01/17 17:35:38;;;;;;;22.98;5.57;;;8.20;84.30;;;;;;5007822;28;20185;-90
2022/01/17 17:38:04;;;;;;;17.67;5.53;;;8.20;84.60;;;;;;5007095;28;20210;-87
2022/01/17 17:40:31;;;;;;;20.02;5.22;;;8.10;85.00;;;;;;5004026;28;20426;-85
2022/01/17 17:42:56;;;;;;;21.52;5.43;;;8.10;85.20;;;;;;5006389;28;20174;-87
2022/01/17 17:45:22;;;;;;;18.03;5.10;;;8.20;85.30;;;;;;5006134;28;20186;-88
2022/01/17 17:47:48;;;;;;;20.40;5.77;;;8.20;85.30;;;;;;5007495;28;20205;-88
2022/01/17 17:50:14;;;;;;;15.43;5.05;;;8.20;85.30;;;;;;5009305;28;20174;-88
2022/01/17 17:52:42;;;;;;;12.45;4.85;;;8.20;85.20;;;;;;5010574;28;20177;-87
2022/01/17 17:55:10;;;;;;;29.75;5.57;;;8.20;85.10;;;;;;5013484;28;20205;-88
2022/01/17 17:57:37;;;;;;;16.38;5.75;;;8.20;85.00;;;;;;5015728;28;20697;-88
2022/01/17 18:00:08;;;;;;;15.85;4.80;;;8.30;84.90;;;;;;5014839;28;20213;-90
2022/01/17 18:02:34;;;;;;;25.80;5.72;;;8.30;84.70;;;;;;5005324;28;20672;-91
2022/01/17 18:05:00;;;;;;;23.47;4.77;;;8.30;84.60;;;;;;5001048;28;20182;-90
2022/01/17 18:07:26;;;;;;;21.03;5.57;;;8.20;84.40;;;;;;5010494;28;20960;-91
2022/01/17 18:09:51;;;;;;;17.07;4.30;;;8.30;84.40;;;;;;5000042;28;20479;-91
2022/01/17 18:12:17;;;;;;;20.87;6.47;;;8.20;84.30;;;;;;5007807;28;20186;-90
2022/01/17 18:14:43;;;;;;;24.52;6.47;;;8.20;84.30;;;;;;4997759;28;20540;-90
2022/01/17 18:17:09;;;;;;;18.83;6.47;;;8.00;84.40;;;;;;5024165;28;20275;-89
2022/01/17 18:19:35;;;;;;;16.23;5.60;;;8.00;84.70;;;;;;5031400;28;20784;-89
2022/01/17 18:22:00;;;;;;;23.03;7.00;;;8.10;84.80;;;;;;5009401;28;20223;-89
2022/01/17 18:24:28;;;;;;;12.40;5.50;;;8.10;84.80;;;;;;5010457;28;20182;-89
2022/01/17 18:26:54;;;;;;;25.45;6.72;;;8.10;84.80;;;;;;5019272;28;20279;-90
2022/01/17 18:29:20;;;;;;;15.57;5.37;;;8.00;84.70;;;;;;5026757;28;20182;-89
2022/01/17 18:31:45;;;;;;;16.60;7.13;;;8.00;84.80;;;;;;5040114;28;20437;-90
2022/01/17 18:34:11;;;;;;;32.60;7.73;;;7.90;84.90;;;;;;5020159;28;20533;-90
2022/01/17 18:36:38;;;;;;;38.70;9.00;;;7.90;85.00;;;;;;5019589;28;20603;-90
2022/01/17 18:39:04;;;;;;;26.35;7.43;;;8.00;84.90;;;;;;5037511;28;20523;-90
2022/01/17 18:41:31;;;;;;;29.25;8.52;;;7.90;85.00;;;;;;5024677;28;20245;-90
2022/01/17 18:43:58;;;;;;;21.95;7.78;;;7.80;85.00;;;;;;5037461;28;20208;-90
2022/01/17 18:46:26;;;;;;;36.15;8.68;;;7.90;85.20;;;;;;5024140;28;20208;-90
2022/01/17 18:48:56;;;;;;;16.75;7.53;;;7.90;85.30;;;;;;5018906;28;20259;-89
2022/01/17 18:51:26;;;;;;;23.55;6.88;;;7.80;85.20;;;;;;5019375;28;20186;-90
2022/01/17 18:53:54;;;;;;;21.88;8.48;;;7.90;85.20;;;;;;5018556;28;20190;-89
2022/01/17 18:56:20;;;;;;;21.10;6.53;;;7.90;85.10;;;;;;5018931;28;20281;-89
2022/01/17 18:58:47;;;;;;;23.08;8.00;;;7.80;85.00;;;;;;5018616;28;20228;-89
2022/01/17 19:01:13;;;;;;;27.95;9.00;;;7.80;85.10;;;;;;5009362;28;20268;-90
2022/01/17 19:03:39;;;;;;;19.05;7.88;;;7.80;85.10;;;;;;5018132;28;20182;-89
2022/01/17 19:06:05;;;;;;;20.07;6.73;;;7.70;85.10;;;;;;5019753;28;20185;-89
2022/01/17 19:08:35;;;;;;;31.80;7.43;;;7.80;85.20;;;;;;5019173;28;20218;-89
2022/01/17 19:11:01;;;;;;;24.38;6.60;;;7.80;85.20;;;;;;5010271;28;20182;-89
2022/01/17 19:13:27;;;;;;;17.30;7.45;;;7.80;85.20;;;;;;4998438;28;20190;-89
2022/01/17 19:15:53;;;;;;;34.28;8.10;;;7.80;85.10;;;;;;4998112;28;20196;-89
2022/01/17 19:21:07;;;;;;;37.83;8.97;;;7.60;85.30;;;;;;5018155;28;20506;-89
2022/01/17 19:23:34;;;;;;;23.10;8.60;;;7.70;85.40;;;;;;4989521;28;20775;-89
2022/01/17 19:26:00;;;;;;;33.33;9.10;;;7.80;85.40;;;;;;5014724;28;20296;-89
2022/01/17 19:28:26;;;;;;;31.70;9.52;;;8.00;84.90;;;;;;5024972;28;20190;-89
2022/01/17 19:30:58;;;;;;;34.00;8.50;;;8.00;84.50;;;;;;5001703;28;20241;-88
2022/01/17 19:33:24;;;;;;;24.35;9.50;;;7.90;84.40;;;;;;4997932;28;20680;-89
2022/01/17 19:35:51;;;;;;;24.33;8.23;;;7.80;84.50;;;;;;4998898;28;20174;-89